createdAt,value
2017-09-21T00:01:15.838Z,21.53
2017-09-21T00:03:43.380Z,23.77
2017-09-21T00:06:10.920Z,26.40
2017-09-21T00:08:39.250Z,21.47
2017-09-21T00:11:06.792Z,19.10
2017-09-21T00:13:34.358Z,24.20
2017-09-21T00:16:01.897Z,20.10
2017-09-21T00:18:29.460Z,19.93
2017-09-21T00:20:57.001Z,25.03
2017-09-21T00:23:25.337Z,24.40
2017-09-21T00:25:52.880Z,21.07
2017-09-21T00:28:20.447Z,21.27
2017-09-21T00:30:47.980Z,25.93
2017-09-21T00:33:15.546Z,19.90
2017-09-21T00:35:43.081Z,25.63
2017-09-21T00:38:10.635Z,25.47
2017-09-21T00:40:38.941Z,25.90
2017-09-21T00:43:06.505Z,23.60
2017-09-21T00:45:34.052Z,26.63
2017-09-21T00:48:01.620Z,26.17
2017-09-21T00:50:29.159Z,25.50
2017-09-21T00:52:56.699Z,30.33
2017-09-21T00:55:25.048Z,24.63
2017-09-21T00:57:52.589Z,26.60
2017-09-21T01:00:20.601Z,27.00
2017-09-21T01:02:48.907Z,23.60
2017-09-21T01:05:16.467Z,21.67
2017-09-21T01:07:44.006Z,19.60
2017-09-21T01:10:12.332Z,27.70
2017-09-21T01:12:39.897Z,21.37
2017-09-21T01:15:07.438Z,29.27
2017-09-21T01:17:34.983Z,23.00
2017-09-21T01:20:02.543Z,22.93
2017-09-21T01:22:30.078Z,22.53
2017-09-21T01:24:58.403Z,25.90
2017-09-21T01:27:25.939Z,19.70
2017-09-21T01:29:53.502Z,25.00
2017-09-21T01:32:21.041Z,28.00
2017-09-21T01:34:49.370Z,29.87
2017-09-21T01:37:16.898Z,24.73
2017-09-21T01:39:44.447Z,19.80
2017-09-21T01:42:11.988Z,21.80
2017-09-21T01:44:39.556Z,25.17
2017-09-21T01:47:07.854Z,24.27
2017-09-21T01:49:35.413Z,23.57
2017-09-21T01:52:02.948Z,25.83
2017-09-21T01:54:31.281Z,20.30
2017-09-21T01:56:58.814Z,17.67
2017-09-21T01:59:26.347Z,21.13
2017-09-21T02:01:54.674Z,21.77
2017-09-21T02:04:22.208Z,19.00
2017-09-21T02:06:49.767Z,18.93
2017-09-21T02:09:17.294Z,26.53
2017-09-21T02:11:44.858Z,18.70
2017-09-21T02:14:13.169Z,21.80
2017-09-21T02:16:40.717Z,17.70
2017-09-21T02:19:08.260Z,20.40
2017-09-21T02:21:36.584Z,26.40
2017-09-21T02:24:04.123Z,22.13
2017-09-21T02:26:31.679Z,24.10
2017-09-21T02:28:59.207Z,23.60
2017-09-21T02:31:26.776Z,22.10
2017-09-21T02:33:55.083Z,25.20
2017-09-21T02:36:22.643Z,26.80
2017-09-21T02:38:50.184Z,26.40
2017-09-21T02:41:17.755Z,24.03
2017-09-21T02:43:45.300Z,26.60
2017-09-21T02:46:13.632Z,26.40
2017-09-21T02:48:41.168Z,23.67
2017-09-21T02:51:08.723Z,25.87
2017-09-21T02:53:37.032Z,26.13
2017-09-21T02:56:04.566Z,30.70
2017-09-21T02:58:32.132Z,33.77
2017-09-21T03:00:59.662Z,31.93
2017-09-21T03:03:27.223Z,25.43
2017-09-21T03:05:54.760Z,26.33
2017-09-21T03:08:23.083Z,23.80
2017-09-21T03:10:50.632Z,20.47
2017-09-21T03:13:18.187Z,21.90
2017-09-21T03:15:45.727Z,17.17
2017-09-21T03:18:14.051Z,24.10
2017-09-21T03:20:41.588Z,19.30
2017-09-21T03:23:09.147Z,18.67
2017-09-21T03:25:36.680Z,22.50
2017-09-21T03:28:05.007Z,19.20
2017-09-21T03:30:32.547Z,20.30
2017-09-21T03:33:00.115Z,18.20
2017-09-21T03:35:27.655Z,23.33
2017-09-21T03:37:55.207Z,21.50
2017-09-21T03:40:23.518Z,19.43
2017-09-21T03:42:51.848Z,19.00
2017-09-21T03:45:20.163Z,20.03
2017-09-21T03:47:47.729Z,24.53
2017-09-21T03:50:15.272Z,22.83
2017-09-21T03:52:42.827Z,18.30
2017-09-21T03:55:10.364Z,23.03
2017-09-21T03:57:38.710Z,23.70
2017-09-21T04:00:06.255Z,29.70
2017-09-21T04:02:33.791Z,19.40
2017-09-21T04:05:01.359Z,16.60
2017-09-21T04:07:28.895Z,20.17
2017-09-21T04:09:57.229Z,19.40
2017-09-21T04:12:24.771Z,20.63
2017-09-21T04:14:52.340Z,18.07
2017-09-21T04:17:19.884Z,15.20
2017-09-21T04:19:47.450Z,16.30
2017-09-21T04:22:14.982Z,25.60
2017-09-21T04:24:42.543Z,22.10
2017-09-21T04:27:10.088Z,25.33
2017-09-21T04:29:37.874Z,20.50
2017-09-21T04:32:05.404Z,17.73
2017-09-21T04:34:33.739Z,21.83
2017-09-21T04:37:01.533Z,16.80
2017-09-21T04:39:29.123Z,22.47
2017-09-21T04:41:56.669Z,18.33
2017-09-21T04:44:24.993Z,18.40
2017-09-21T04:46:52.528Z,17.63
2017-09-21T04:49:20.092Z,21.10
2017-09-21T04:51:47.635Z,23.77
2017-09-21T04:54:16.292Z,21.13
2017-09-21T04:56:43.831Z,25.00
2017-09-21T04:59:12.171Z,20.00
2017-09-21T05:01:39.715Z,25.57
2017-09-21T05:04:08.045Z,22.67
2017-09-21T05:06:35.640Z,22.90
2017-09-21T05:09:03.947Z,23.13
2017-09-21T05:11:31.506Z,21.43
2017-09-21T05:13:59.039Z,18.43
2017-09-21T05:16:27.374Z,21.80
2017-09-21T05:18:55.679Z,21.80
2017-09-21T05:21:23.239Z,21.20
2017-09-21T05:23:51.943Z,20.70
2017-09-21T05:26:20.394Z,18.93
2017-09-21T05:28:49.355Z,17.73
2017-09-21T05:31:16.964Z,19.80
2017-09-21T05:33:44.504Z,16.57
2017-09-21T05:36:12.070Z,22.30
2017-09-21T05:38:39.607Z,15.53
2017-09-21T05:41:07.186Z,20.70
2017-09-21T05:43:35.064Z,17.00
2017-09-21T05:46:02.778Z,18.83
2017-09-21T05:48:30.337Z,21.23
2017-09-21T05:50:57.914Z,19.40
2017-09-21T05:53:25.456Z,19.43
2017-09-21T05:55:53.024Z,22.63
2017-09-21T05:58:20.564Z,22.77
2017-09-21T06:00:48.141Z,20.97
2017-09-21T06:03:15.694Z,29.20
2017-09-21T06:05:43.226Z,30.33
2017-09-21T06:08:11.557Z,34.50
2017-09-21T06:10:39.097Z,30.07
2017-09-21T06:13:06.671Z,24.43
2017-09-21T06:15:34.207Z,34.37
2017-09-21T06:18:01.763Z,21.90
2017-09-21T06:20:29.300Z,24.50
2017-09-21T06:22:57.640Z,23.20
2017-09-21T06:25:25.172Z,26.33
2017-09-21T06:27:52.728Z,24.10
2017-09-21T06:30:20.264Z,26.63
2017-09-21T06:32:48.590Z,26.40
2017-09-21T06:35:16.122Z,18.53
2017-09-21T06:37:43.687Z,20.80
2017-09-21T06:40:11.225Z,20.90
2017-09-21T06:42:39.526Z,17.90
2017-09-21T06:45:07.088Z,17.97
2017-09-21T06:47:34.630Z,19.83
2017-09-21T06:50:02.197Z,20.07
2017-09-21T06:52:29.737Z,23.83
2017-09-21T06:54:58.058Z,20.50
2017-09-21T06:57:25.591Z,20.33
2017-09-21T06:59:53.156Z,21.07
2017-09-21T07:02:20.687Z,18.00
2017-09-21T07:04:49.016Z,22.10
2017-09-21T07:07:16.555Z,27.57
2017-09-21T07:09:44.102Z,27.23
2017-09-21T07:12:11.670Z,20.20
2017-09-21T07:14:39.208Z,29.30
2017-09-21T07:17:07.546Z,26.23
2017-09-21T07:19:35.083Z,25.37
2017-09-21T07:22:02.655Z,29.70
2017-09-21T07:24:30.187Z,33.50
2017-09-21T07:26:57.744Z,26.67
2017-09-21T07:29:25.273Z,29.50
2017-09-21T07:31:52.831Z,26.70
2017-09-21T07:34:20.374Z,28.97
2017-09-21T07:36:47.919Z,25.17
2017-09-21T07:39:15.442Z,27.73
2017-09-21T07:41:43.004Z,24.80
2017-09-21T07:44:10.532Z,28.00
2017-09-21T07:46:38.859Z,27.23
2017-09-21T07:49:06.391Z,27.07
2017-09-21T07:51:33.948Z,33.60
2017-09-21T07:54:02.251Z,32.60
2017-09-21T07:56:29.812Z,28.50
2017-09-21T07:58:57.352Z,36.17
2017-09-21T08:01:24.919Z,30.57
2017-09-21T08:03:52.462Z,29.13
2017-09-21T08:06:20.790Z,28.50
2017-09-21T08:08:48.322Z,27.20
2017-09-21T08:11:15.870Z,25.60
2017-09-21T08:13:43.427Z,30.20
2017-09-21T08:16:10.965Z,31.00
2017-09-21T08:18:39.298Z,26.30
2017-09-21T08:21:06.839Z,30.60
2017-09-21T08:23:34.400Z,26.80
2017-09-21T08:26:01.943Z,27.03
2017-09-21T08:28:29.513Z,27.13
2017-09-21T08:30:57.064Z,25.20
2017-09-21T08:33:24.639Z,20.37
2017-09-21T08:35:52.183Z,28.33
2017-09-21T08:38:19.747Z,26.20
2017-09-21T08:40:47.287Z,26.60
2017-09-21T08:43:15.628Z,30.37
2017-09-21T08:45:43.177Z,28.40
2017-09-21T08:48:10.750Z,26.10
2017-09-21T08:50:38.296Z,27.63
2017-09-21T08:53:05.862Z,23.20
2017-09-21T08:55:33.403Z,19.13
2017-09-21T08:58:00.959Z,24.30
2017-09-21T09:00:28.491Z,29.83
2017-09-21T09:02:56.819Z,22.00
2017-09-21T09:05:24.369Z,19.77
2017-09-21T09:07:51.946Z,18.13
2017-09-21T09:10:19.499Z,20.43
2017-09-21T09:12:47.047Z,22.53
2017-09-21T09:15:14.619Z,15.17
2017-09-21T09:17:42.163Z,19.40
2017-09-21T09:20:09.727Z,16.80
2017-09-21T09:22:37.259Z,14.53
2017-09-21T09:25:04.823Z,16.03
2017-09-21T09:27:32.363Z,15.37
2017-09-21T09:30:00.692Z,14.83
2017-09-21T09:32:28.238Z,12.30
2017-09-21T09:34:55.796Z,16.07
2017-09-21T09:37:23.334Z,15.33
2017-09-21T09:39:50.891Z,12.37
2017-09-21T09:42:18.441Z,13.67
2017-09-21T09:44:46.759Z,9.27
2017-09-21T09:47:14.290Z,13.87
2017-09-21T09:49:41.944Z,12.13
2017-09-21T09:52:09.484Z,11.03
2017-09-21T09:54:37.043Z,9.63
2017-09-21T09:57:04.567Z,9.60
2017-09-21T09:59:32.119Z,10.13
2017-09-21T10:01:59.655Z,10.70
2017-09-21T10:04:27.212Z,11.87
2017-09-21T10:06:54.755Z,12.80
2017-09-21T10:09:23.079Z,11.67
2017-09-21T10:11:50.606Z,10.90
2017-09-21T10:14:18.134Z,9.30
2017-09-21T10:16:45.700Z,10.67
2017-09-21T10:19:14.020Z,10.00
2017-09-21T10:21:41.584Z,16.50
2017-09-21T10:24:09.123Z,10.03
2017-09-21T10:26:36.688Z,10.23
2017-09-21T10:29:04.211Z,9.30
2017-09-21T10:31:31.842Z,10.67
2017-09-21T10:33:59.380Z,10.17
2017-09-21T10:36:26.939Z,9.80
2017-09-21T10:38:54.467Z,11.80
2017-09-21T10:41:22.799Z,11.07
2017-09-21T10:43:50.327Z,8.47
2017-09-21T10:46:17.883Z,8.57
2017-09-21T10:48:45.411Z,8.33
2017-09-21T10:51:13.726Z,9.77
2017-09-21T10:53:41.254Z,9.50
2017-09-21T10:56:09.575Z,9.53
2017-09-21T10:58:37.111Z,8.37
2017-09-21T11:01:04.675Z,17.43
2017-09-21T11:03:32.211Z,9.20
2017-09-21T11:06:00.543Z,10.67
2017-09-21T11:08:28.074Z,7.37
2017-09-21T11:10:55.644Z,10.20
2017-09-21T11:13:23.177Z,10.17
2017-09-21T11:15:51.503Z,11.07
2017-09-21T11:18:19.033Z,8.73
2017-09-21T11:20:46.559Z,9.13
2017-09-21T11:23:14.882Z,9.37
2017-09-21T11:25:42.406Z,8.37
2017-09-21T11:28:10.727Z,9.83
2017-09-21T11:30:38.258Z,8.20
2017-09-21T11:33:05.812Z,8.53
2017-09-21T11:35:33.349Z,8.37
2017-09-21T11:38:01.672Z,6.40
2017-09-21T11:40:29.203Z,7.70
2017-09-21T11:42:57.528Z,8.43
2017-09-21T11:45:25.055Z,8.47
2017-09-21T11:47:52.619Z,8.27
2017-09-21T11:50:20.146Z,9.30
2017-09-21T11:52:48.465Z,6.67
2017-09-21T11:55:16.003Z,5.50
2017-09-21T11:57:43.567Z,5.60
2017-09-21T12:00:11.094Z,5.33
2017-09-21T12:02:38.646Z,9.40
2017-09-21T12:05:06.180Z,6.50
2017-09-21T12:07:33.728Z,5.47
2017-09-21T12:10:01.264Z,6.10
2017-09-21T12:12:28.811Z,7.33
2017-09-21T12:14:57.103Z,9.10
2017-09-21T12:17:24.656Z,8.67
2017-09-21T12:19:52.196Z,5.60
2017-09-21T12:22:20.500Z,5.60
2017-09-21T12:24:48.051Z,6.50
2017-09-21T12:27:15.578Z,8.43
2017-09-21T12:29:43.139Z,5.33
2017-09-21T12:32:10.668Z,5.33
2017-09-21T12:34:38.226Z,4.47
2017-09-21T12:37:05.762Z,5.57
2017-09-21T12:39:33.311Z,5.80
2017-09-21T12:42:00.843Z,5.33
2017-09-21T12:44:28.405Z,5.57
2017-09-21T12:46:56.712Z,5.43
2017-09-21T12:49:24.266Z,5.33
2017-09-21T12:51:51.802Z,4.80
2017-09-21T12:54:20.123Z,5.60
2017-09-21T12:56:47.647Z,7.03
2017-09-21T12:59:15.972Z,4.90
2017-09-21T13:01:43.506Z,5.30
2017-09-21T13:04:11.065Z,4.30
2017-09-21T13:06:38.596Z,4.50
2017-09-21T13:09:06.924Z,5.00
2017-09-21T13:11:34.472Z,4.23
2017-09-21T13:14:02.031Z,6.57
2017-09-21T13:16:29.562Z,3.80
2017-09-21T13:18:57.880Z,5.93
2017-09-21T13:21:25.409Z,4.60
2017-09-21T13:23:52.947Z,4.60
2017-09-21T13:26:20.504Z,4.50
2017-09-21T13:28:48.039Z,5.60
2017-09-21T13:31:15.592Z,3.90
2017-09-21T13:33:43.123Z,5.77
2017-09-21T13:36:10.675Z,4.50
2017-09-21T13:38:38.205Z,4.43
2017-09-21T13:41:05.752Z,4.23
2017-09-21T13:43:33.289Z,4.77
2017-09-21T13:46:00.834Z,4.10
2017-09-21T13:48:28.359Z,4.77
2017-09-21T13:50:56.677Z,5.70
2017-09-21T13:53:24.203Z,4.30
2017-09-21T13:55:51.749Z,5.20
2017-09-21T13:58:20.053Z,4.20
2017-09-21T14:00:47.611Z,4.43
2017-09-21T14:03:15.143Z,4.57
2017-09-21T14:05:43.468Z,5.63
2017-09-21T14:08:10.999Z,4.70
2017-09-21T14:10:38.547Z,6.77
2017-09-21T14:13:06.840Z,5.77
2017-09-21T14:15:34.394Z,4.70
2017-09-21T14:18:01.928Z,4.43
2017-09-21T14:20:30.250Z,6.63
2017-09-21T14:22:57.776Z,4.60
2017-09-21T14:25:26.068Z,4.60
2017-09-21T14:27:53.623Z,3.93
2017-09-21T14:30:21.914Z,4.90
2017-09-21T14:32:49.458Z,4.50
2017-09-21T14:35:17.750Z,4.43
2017-09-21T14:37:45.302Z,4.13
2017-09-21T14:40:12.835Z,3.70
2017-09-21T14:42:41.164Z,5.40
2017-09-21T14:45:08.692Z,4.73
2017-09-21T14:47:37.011Z,7.73
2017-09-21T14:50:04.548Z,4.80
2017-09-21T14:52:32.095Z,5.20
2017-09-21T14:54:59.631Z,4.30
2017-09-21T14:57:27.955Z,3.83
2017-09-21T14:59:55.488Z,6.10
2017-09-21T15:02:23.035Z,3.50
2017-09-21T15:04:51.330Z,5.13
2017-09-21T15:07:18.884Z,4.27
2017-09-21T15:09:46.423Z,4.70
2017-09-21T15:12:14.740Z,4.73
2017-09-21T15:14:42.276Z,5.80
2017-09-21T15:17:10.600Z,4.80
2017-09-21T15:19:38.131Z,4.97
2017-09-21T15:22:05.683Z,5.57
2017-09-21T15:24:33.207Z,6.37
2017-09-21T15:27:00.775Z,4.77
2017-09-21T15:29:29.077Z,4.20
2017-09-21T15:31:56.603Z,4.53
2017-09-21T15:34:24.151Z,4.33
2017-09-21T15:36:51.680Z,4.37
2017-09-21T15:39:19.236Z,3.50
2017-09-21T15:41:46.762Z,4.47
2017-09-21T15:44:15.103Z,5.30
2017-09-21T15:46:42.647Z,4.73
2017-09-21T15:49:10.199Z,5.10
2017-09-21T15:51:37.736Z,3.60
2017-09-21T15:54:05.286Z,4.60
2017-09-21T15:56:32.819Z,5.10
2017-09-21T15:59:00.379Z,4.70
2017-09-21T16:01:27.917Z,4.27
2017-09-21T16:03:55.468Z,4.40
2017-09-21T16:06:22.997Z,4.90
2017-09-21T16:08:50.558Z,4.10
2017-09-21T16:11:18.103Z,3.97
2017-09-21T16:13:45.667Z,5.50
2017-09-21T16:16:13.207Z,5.30
2017-09-21T16:18:41.527Z,4.33
2017-09-21T16:21:09.061Z,4.00
2017-09-21T16:23:36.623Z,5.47
2017-09-21T16:26:04.155Z,5.50
2017-09-21T16:28:32.454Z,4.33
2017-09-21T16:31:00.775Z,4.73
2017-09-21T16:33:28.306Z,4.20
2017-09-21T16:35:55.862Z,4.27
2017-09-21T16:38:23.388Z,4.50
2017-09-21T16:40:50.951Z,5.63
2017-09-21T16:43:19.252Z,5.57
2017-09-21T16:45:47.038Z,6.20
2017-09-21T16:48:14.562Z,4.50
2017-09-21T16:50:42.882Z,4.77
2017-09-21T16:53:10.416Z,4.53
2017-09-21T16:55:37.979Z,4.77
2017-09-21T16:58:05.513Z,4.73
2017-09-21T17:00:33.827Z,5.20
2017-09-21T17:03:01.366Z,5.37
2017-09-21T17:05:28.931Z,30.03
2017-09-21T17:07:56.464Z,6.20
2017-09-21T17:10:24.792Z,4.77
2017-09-21T17:12:52.335Z,4.60
2017-09-21T17:15:19.887Z,5.00
2017-09-21T17:17:47.424Z,4.90
2017-09-21T17:20:15.745Z,6.37
2017-09-21T17:22:43.288Z,5.70
2017-09-21T17:25:10.855Z,6.77
2017-09-21T17:27:38.385Z,6.13
2017-09-21T17:30:06.705Z,7.27
2017-09-21T17:32:34.234Z,5.53
2017-09-21T17:35:02.569Z,6.37
2017-09-21T17:37:30.103Z,6.67
2017-09-21T17:39:57.641Z,6.53
2017-09-21T17:42:25.214Z,7.50
2017-09-21T17:44:52.760Z,5.77
2017-09-21T17:47:21.086Z,8.00
2017-09-21T17:49:48.615Z,5.17
2017-09-21T17:52:16.167Z,6.67
2017-09-21T17:54:43.709Z,6.87
2017-09-21T17:57:11.268Z,4.80
2017-09-21T17:59:38.803Z,5.70
2017-09-21T18:02:06.365Z,5.50
2017-09-21T18:04:34.675Z,6.10
2017-09-21T18:07:02.230Z,5.50
2017-09-21T18:09:29.759Z,5.30
2017-09-21T18:11:57.315Z,5.07
2017-09-21T18:14:24.848Z,5.57
2017-09-21T18:16:52.403Z,5.03
2017-09-21T18:19:19.981Z,6.40
2017-09-21T18:21:47.546Z,5.83
2017-09-21T18:24:15.097Z,8.03
2017-09-21T18:26:42.663Z,5.67
2017-09-21T18:29:10.205Z,6.70
2017-09-21T18:31:37.760Z,6.17
2017-09-21T18:34:05.292Z,5.57
2017-09-21T18:36:32.823Z,5.20
2017-09-21T18:39:01.143Z,5.80
2017-09-21T18:41:28.667Z,6.57
2017-09-21T18:43:57.104Z,5.03
2017-09-21T18:46:24.653Z,7.37
2017-09-21T18:48:52.203Z,6.07
2017-09-21T18:51:19.747Z,7.13
2017-09-21T18:53:47.303Z,6.23
2017-09-21T18:56:14.842Z,5.80
2017-09-21T18:58:43.176Z,6.47
2017-09-21T19:01:10.719Z,6.63
2017-09-21T19:03:38.282Z,5.70
2017-09-21T19:06:05.820Z,7.00
2017-09-21T19:08:33.379Z,6.23
2017-09-21T19:11:00.906Z,6.13
2017-09-21T19:13:28.475Z,8.03
2017-09-21T19:15:56.794Z,6.60
2017-09-21T19:18:24.357Z,6.13
2017-09-21T19:20:51.899Z,6.33
2017-09-21T19:23:19.462Z,7.80
2017-09-21T19:25:46.994Z,6.77
2017-09-21T19:28:15.314Z,6.23
2017-09-21T19:30:42.848Z,5.80
2017-09-21T19:33:10.419Z,7.07
2017-09-21T19:35:37.951Z,6.47
2017-09-21T19:38:06.245Z,7.37
2017-09-21T19:40:33.796Z,8.70
2017-09-21T19:43:02.091Z,7.33
2017-09-21T19:45:29.652Z,6.20
2017-09-21T19:47:57.189Z,6.37
2017-09-21T19:50:24.750Z,7.77
2017-09-21T19:52:53.046Z,6.90
2017-09-21T19:55:20.606Z,16.27
2017-09-21T19:57:48.146Z,8.37
2017-09-21T20:00:16.464Z,6.77
2017-09-21T20:02:43.991Z,8.63
2017-09-21T20:05:11.596Z,8.53
2017-09-21T20:07:39.131Z,8.00
2017-09-21T20:10:06.708Z,12.77
2017-09-21T20:12:34.234Z,8.57
2017-09-21T20:15:01.795Z,9.50
2017-09-21T20:17:29.335Z,9.10
2017-09-21T20:19:57.659Z,8.50
2017-09-21T20:22:25.200Z,8.53
2017-09-21T20:24:52.756Z,10.53
2017-09-21T20:27:20.294Z,9.87
2017-09-21T20:29:48.614Z,8.30
2017-09-21T20:32:16.144Z,8.73
2017-09-21T20:34:43.704Z,7.50
2017-09-21T20:37:12.004Z,8.43
2017-09-21T20:39:40.315Z,9.00
2017-09-21T20:42:07.875Z,7.27
2017-09-21T20:44:35.521Z,9.03
2017-09-21T20:47:03.078Z,7.77
2017-09-21T20:49:30.619Z,8.40
2017-09-21T20:51:58.200Z,7.80
2017-09-21T20:54:25.733Z,7.70
2017-09-21T20:56:53.304Z,7.17
2017-09-21T20:59:21.240Z,8.73
2017-09-21T21:01:48.901Z,11.27
2017-09-21T21:04:17.259Z,12.13
2017-09-21T21:06:45.674Z,7.73
2017-09-21T21:09:13.220Z,7.93
2017-09-21T21:11:41.600Z,7.10
2017-09-21T21:14:09.899Z,7.97
2017-09-21T21:16:38.291Z,9.20
2017-09-21T21:19:06.072Z,8.43
2017-09-21T21:21:33.642Z,8.30
2017-09-21T21:24:01.447Z,9.37
2017-09-21T21:26:29.771Z,9.77
2017-09-21T21:28:57.312Z,10.47
2017-09-21T21:31:24.873Z,11.13
2017-09-21T21:33:52.406Z,12.20
2017-09-21T21:36:19.975Z,10.60
2017-09-21T21:38:47.556Z,11.30
2017-09-21T21:41:15.107Z,8.63
2017-09-21T21:43:42.639Z,8.63
2017-09-21T21:46:10.941Z,6.90
2017-09-21T21:48:38.495Z,7.87
2017-09-21T21:51:06.027Z,8.97
2017-09-21T21:53:34.354Z,7.53
2017-09-21T21:56:01.884Z,8.63
2017-09-21T21:58:29.435Z,6.90
2017-09-21T22:00:57.727Z,8.27
2017-09-21T22:03:25.292Z,10.77
2017-09-21T22:05:52.832Z,9.30
2017-09-21T22:08:21.299Z,8.80
2017-09-21T22:10:49.607Z,11.50
2017-09-21T22:13:17.172Z,9.50
2017-09-21T22:15:44.696Z,7.57
2017-09-21T22:18:13.028Z,10.13
2017-09-21T22:20:40.567Z,8.97
2017-09-21T22:23:08.130Z,9.93
2017-09-21T22:25:35.663Z,10.17
2017-09-21T22:28:03.991Z,9.20
2017-09-21T22:51:48.595Z,12.93
2017-09-21T22:54:16.153Z,12.30
2017-09-21T22:56:43.683Z,12.80
2017-09-21T22:59:11.237Z,10.77
2017-09-21T23:01:38.771Z,10.40
2017-09-21T23:04:07.100Z,11.97
2017-09-21T23:06:35.400Z,12.83
2017-09-21T23:09:11.189Z,11.30
2017-09-21T23:11:39.491Z,11.10
2017-09-21T23:14:07.045Z,12.40
2017-09-21T23:16:34.581Z,13.30
2017-09-21T23:19:02.908Z,12.30
2017-09-21T23:21:30.450Z,10.73
2017-09-21T23:23:58.008Z,10.47
2017-09-21T23:26:25.542Z,11.07
2017-09-21T23:28:53.862Z,11.70
2017-09-21T23:31:21.404Z,13.00
2017-09-21T23:33:48.983Z,12.43
2017-09-21T23:36:16.515Z,11.07
2017-09-21T23:38:44.052Z,14.90
2017-09-21T23:41:12.374Z,12.40
2017-09-21T23:43:39.905Z,11.90
2017-09-21T23:46:08.232Z,10.73
2017-09-21T23:48:44.307Z,10.23
2017-09-21T23:51:11.866Z,12.83
2017-09-21T23:53:39.402Z,12.70
2017-09-21T23:56:06.950Z,14.37
2017-09-21T23:58:34.484Z,14.53
